Penns, Mississippi
Current Conditions -  °F | °C
As of 2:45 PM on Monday 22 Dec 2014 (Local Time) from KGTR Reporting Station
Haze Haze  
Wind Chill: 54°   Ceiling: 300
Heat Index: 54°   Visibility: 2mi
Dew Point: 52°   Wind: 9mph
Humidity: 94%   Direction: 150°SSE
Pressure: 29.72"   Gusts: NA
Location:  33.3415°N, 88.5175°W
Report Text: KGTR 222045Z 15008KT 2SM BR OVC003 12/11 A2972
Loading
Personal Weather Stations






























Interactive Weather Map New forecast layout! Learn more

10-Day Weather Forecast

Advertisements
Track Severe Weather on mobile